Time;durP1;ratioP1;P1;durP2;ratioP2;P2;SDS_P1;SDS_P2;PMS_P1;PMS_P2;Temp;Humidity;BMP_temperature;BMP_pressure;BME280_temperature;BME280_humidity;BME280_pressure;Samples;Min_cycle;Max_cycle;Signal;HPM_P1;HPM_P2
2024/01/28 00:00:22;;;;;;;7.20;3.73;;;-0.50;99.90;-1.10;102516.00;;;;4894876;28;88327;-68
2024/01/28 00:02:48;;;;;;;4.67;3.67;;;-0.70;99.90;-1.10;102511.00;;;;4896992;28;87919;-69
2024/01/28 00:05:14;;;;;;;14.33;4.33;;;-0.70;99.90;-1.10;102511.00;;;;4895017;28;88702;-69
2024/01/28 00:07:40;;;;;;;9.17;4.37;;;-0.70;99.90;-1.20;102504.00;;;;4900512;28;87834;-69
2024/01/28 00:10:07;;;;;;;7.87;4.47;;;-0.70;99.90;-1.20;102494.00;;;;4896885;28;87786;-69
2024/01/28 00:12:33;;;;;;;6.90;4.40;;;-0.70;99.90;-1.30;102489.00;;;;4899412;28;89434;-68
2024/01/28 00:14:59;;;;;;;8.00;3.13;;;-0.70;99.90;-1.30;102503.00;;;;4902180;28;88973;-68
2024/01/28 00:17:24;;;;;;;9.77;4.13;;;-0.70;99.90;-1.40;102491.00;;;;4897515;28;110395;-68
2024/01/28 00:19:50;;;;;;;5.80;3.93;;;-0.90;99.90;-1.40;102501.00;;;;4900692;28;109519;-68
2024/01/28 00:22:16;;;;;;;5.77;3.10;;;-1.00;99.90;-1.40;102491.00;;;;4900852;28;117678;-69
2024/01/28 00:24:42;;;;;;;6.67;3.80;;;-1.00;99.90;-1.40;102491.00;;;;4894464;28;114911;-69
2024/01/28 00:27:07;;;;;;;7.50;3.60;;;-0.80;99.90;-1.50;102498.00;;;;4893250;28;110749;-69
2024/01/28 00:29:33;;;;;;;7.30;3.07;;;-1.00;99.90;-1.50;102503.00;;;;4893821;28;88726;-69
2024/01/28 00:31:59;;;;;;;6.30;3.60;;;-1.00;99.90;-1.50;102501.00;;;;4907517;28;117169;-69
2024/01/28 00:34:27;;;;;;;11.13;4.73;;;-1.20;99.90;-1.50;102492.00;;;;4899174;28;90229;-69
2024/01/28 00:36:56;;;;;;;13.63;4.07;;;-1.00;99.90;-1.50;102491.00;;;;4903197;28;87933;-69
2024/01/28 00:39:21;;;;;;;11.60;3.97;;;-0.20;99.90;-1.50;102496.00;;;;4901291;28;88276;-69
2024/01/28 00:41:47;;;;;;;6.40;4.37;;;-1.10;99.90;-1.60;102492.00;;;;4909586;28;116286;-68
2024/01/28 00:44:13;;;;;;;4.67;3.53;;;-1.10;99.90;-1.60;102488.00;;;;4898164;28;87928;-68
2024/01/28 00:46:38;;;;;;;12.63;3.70;;;-1.20;99.90;-1.60;102491.00;;;;4899696;28;87267;-68
2024/01/28 00:49:04;;;;;;;6.33;4.13;;;-1.20;99.90;-1.70;102490.00;;;;4899430;28;108201;-68
2024/01/28 00:51:31;;;;;;;10.93;3.50;;;-0.20;99.90;-1.70;102492.00;;;;4902745;28;98994;-69
2024/01/28 00:53:57;;;;;;;5.53;3.53;;;-1.20;99.90;-1.80;102493.00;;;;4899229;28;89123;-68
2024/01/28 00:56:24;;;;;;;10.33;3.10;;;-1.30;99.90;-1.80;102486.00;;;;4898390;28;87750;-68
2024/01/28 00:58:50;;;;;;;7.50;4.57;;;-1.30;99.90;-1.80;102484.00;;;;4898990;28;89998;-68
2024/01/28 01:01:18;;;;;;;5.60;3.60;;;-1.30;99.90;-1.80;102493.00;;;;4896656;28;88828;-68
2024/01/28 01:03:43;;;;;;;3.80;3.40;;;-1.30;99.90;-1.80;102496.00;;;;4899607;28;87958;-68
2024/01/28 01:06:09;;;;;;;6.30;2.90;;;-1.40;99.90;-1.90;102491.00;;;;4902364;28;87817;-68
2024/01/28 01:08:35;;;;;;;6.67;3.70;;;-1.50;99.90;-1.90;102485.00;;;;4897234;28;88096;-68
2024/01/28 01:11:05;;;;;;;6.37;3.87;;;-1.50;99.90;-1.90;102488.00;;;;4901779;28;87237;-68
2024/01/28 01:13:34;;;;;;;8.83;3.60;;;-1.50;99.90;-1.90;102500.00;;;;4902824;28;88040;-68
2024/01/28 01:16:00;;;;;;;6.80;3.70;;;-1.50;99.90;-1.90;102503.00;;;;4899348;28;110431;-68
2024/01/28 01:18:26;;;;;;;4.23;3.33;;;-1.50;99.90;-1.90;102497.00;;;;4897345;28;108304;-67
2024/01/28 01:20:52;;;;;;;6.20;3.70;;;-1.50;99.90;-2.00;102493.00;;;;4903876;28;113335;-68
2024/01/28 01:23:18;;;;;;;7.27;3.30;;;-0.90;99.90;-2.00;102500.00;;;;4898233;28;88102;-67
2024/01/28 01:25:44;;;;;;;7.00;3.57;;;-1.50;99.90;-1.90;102484.00;;;;4898764;28;103807;-68
2024/01/28 01:28:10;;;;;;;5.63;3.60;;;-1.50;99.90;-1.90;102478.00;;;;4897362;28;108147;-68
2024/01/28 01:30:35;;;;;;;4.90;3.17;;;-1.50;99.90;-1.90;102483.00;;;;4908838;28;91232;-67
2024/01/28 01:33:01;;;;;;;5.77;4.23;;;-1.50;99.90;-1.90;102488.00;;;;4902444;28;87820;-68
2024/01/28 01:35:27;;;;;;;9.97;3.97;;;-1.50;99.90;-2.00;102482.00;;;;4904019;28;87329;-68
2024/01/28 01:37:54;;;;;;;8.03;3.33;;;-1.50;99.90;-2.00;102492.00;;;;4899625;28;108840;-67
2024/01/28 01:40:20;;;;;;;12.40;4.37;;;-1.50;99.90;-2.00;102505.00;;;;4897506;28;89763;-67
2024/01/28 01:42:47;;;;;;;10.57;3.83;;;-1.50;99.90;-2.00;102510.00;;;;4897100;28;108319;-67
2024/01/28 01:45:12;;;;;;;7.97;3.43;;;-1.50;99.90;-2.00;102516.00;;;;4895178;28;95656;-67
2024/01/28 01:47:42;;;;;;;6.53;3.77;;;-1.60;99.90;-2.00;102499.00;;;;4902026;28;108376;-67
2024/01/28 01:50:10;;;;;;;5.50;4.27;;;-1.50;99.90;-2.00;102491.00;;;;4897969;28;96314;-66
2024/01/28 01:52:40;;;;;;;6.53;3.33;;;-1.50;99.90;-2.00;102502.00;;;;4899600;28;88755;-66
2024/01/28 01:55:07;;;;;;;7.53;3.17;;;-1.60;99.90;-2.10;102504.00;;;;4895616;28;87973;-66
2024/01/28 01:57:33;;;;;;;5.10;3.03;;;-1.60;99.90;-2.10;102512.00;;;;4895593;28;102108;-66
2024/01/28 01:59:58;;;;;;;6.17;4.00;;;-1.60;99.90;-2.10;102497.00;;;;4898142;28;114684;-66
2024/01/28 02:02:26;;;;;;;13.27;4.73;;;-1.60;99.90;-2.10;102507.00;;;;4899639;28;117113;-67
2024/01/28 02:04:51;;;;;;;7.20;4.23;;;-1.60;99.90;-2.10;102502.00;;;;4899683;28;88121;-66
2024/01/28 02:07:17;;;;;;;4.27;3.37;;;-1.60;99.90;-2.10;102511.00;;;;4896917;28;109049;-66
2024/01/28 02:09:43;;;;;;;6.73;4.63;;;-1.60;99.90;-2.10;102514.00;;;;4898703;28;88918;-66
2024/01/28 02:12:09;;;;;;;11.50;3.40;;;-1.70;99.90;-2.10;102514.00;;;;4898876;28;88009;-66
2024/01/28 02:14:34;;;;;;;5.90;3.50;;;-1.60;99.90;-2.10;102511.00;;;;4897341;28;110572;-66
2024/01/28 02:17:01;;;;;;;7.17;4.50;;;-1.70;99.90;-2.10;102500.00;;;;4899522;28;109385;-65
2024/01/28 02:19:27;;;;;;;7.07;3.63;;;-1.70;99.90;-2.10;102501.00;;;;4895066;28;88651;-65
2024/01/28 02:21:53;;;;;;;8.47;4.57;;;-1.70;99.90;-2.10;102503.00;;;;4895438;28;88209;-66
2024/01/28 02:24:20;;;;;;;7.40;3.70;;;-1.70;99.90;-2.10;102498.00;;;;4901297;28;87166;-65
2024/01/28 02:26:45;;;;;;;9.13;3.50;;;-1.70;99.90;-2.10;102495.00;;;;4889344;28;101134;-66
2024/01/28 02:29:11;;;;;;;12.60;4.07;;;-1.70;99.90;-2.10;102502.00;;;;4898547;28;105918;-65
2024/01/28 02:31:37;;;;;;;6.63;2.93;;;-1.70;99.90;-2.10;102500.00;;;;4897858;28;115892;-65
2024/01/28 02:34:02;;;;;;;3.57;2.73;;;-1.70;99.90;-2.10;102509.00;;;;4902946;28;87694;-66
2024/01/28 02:36:29;;;;;;;10.20;4.33;;;-1.70;99.90;-2.10;102511.00;;;;4904279;28;108998;-65
2024/01/28 02:38:55;;;;;;;6.30;3.47;;;-1.70;99.90;-2.10;102502.00;;;;4900217;28;108339;-65
2024/01/28 02:41:21;;;;;;;15.60;4.23;;;-1.60;99.90;-2.10;102503.00;;;;4901492;28;87903;-65
2024/01/28 02:43:47;;;;;;;6.47;3.67;;;-1.60;99.90;-2.10;102503.00;;;;4901609;28;88146;-65
2024/01/28 02:46:14;;;;;;;10.93;3.63;;;-1.60;99.90;-2.10;102511.00;;;;4897244;28;87975;-65
2024/01/28 02:48:40;;;;;;;7.27;3.20;;;-1.30;99.90;-2.10;102512.00;;;;4898496;28;88457;-65
2024/01/28 02:51:06;;;;;;;6.73;3.20;;;-1.60;99.90;-2.10;102502.00;;;;4897377;28;101966;-65
2024/01/28 02:53:32;;;;;;;7.30;4.10;;;-1.60;99.90;-2.10;102493.00;;;;4898904;28;87755;-65
2024/01/28 02:56:00;;;;;;;5.73;3.27;;;-1.60;99.90;-2.10;102497.00;;;;4898210;28;98709;-65
2024/01/28 02:58:26;;;;;;;6.97;3.90;;;-1.60;99.90;-2.00;102509.00;;;;4895790;28;88706;-66
2024/01/28 03:00:52;;;;;;;3.27;2.80;;;-1.70;99.90;-2.10;102501.00;;;;4899314;28;88609;-65
2024/01/28 03:03:18;;;;;;;7.03;3.70;;;-1.60;99.90;-2.00;102495.00;;;;4894954;28;88124;-65
2024/01/28 03:05:44;;;;;;;4.73;3.40;;;-1.60;99.90;-2.10;102498.00;;;;4900623;28;87839;-66
2024/01/28 03:08:10;;;;;;;8.80;3.50;;;-1.60;99.90;-2.10;102510.00;;;;4901561;28;87947;-66
2024/01/28 03:10:37;;;;;;;4.07;3.13;;;-1.60;99.90;-2.10;102494.00;;;;4897541;28;107523;-65
2024/01/28 03:13:03;;;;;;;5.60;3.17;;;-1.70;99.90;-2.20;102496.00;;;;4897828;28;86835;-65
2024/01/28 03:15:29;;;;;;;11.17;4.00;;;-0.70;99.90;-2.30;102501.00;;;;4898401;28;88066;-65
2024/01/28 03:17:54;;;;;;;8.20;4.33;;;-1.80;99.90;-2.30;102503.00;;;;4895682;28;118356;-65
2024/01/28 03:20:21;;;;;;;5.73;3.90;;;-1.80;99.90;-2.40;102498.00;;;;4897933;28;116863;-65
2024/01/28 03:22:46;;;;;;;9.90;4.40;;;-1.90;99.90;-2.40;102493.00;;;;4898728;28;88044;-65
2024/01/28 03:25:15;;;;;;;5.47;3.10;;;-1.90;99.90;-2.40;102493.00;;;;4894873;28;107803;-65
2024/01/28 03:27:41;;;;;;;5.03;3.73;;;-1.90;99.90;-2.40;102503.00;;;;4895199;28;88158;-65
2024/01/28 03:30:08;;;;;;;9.17;3.50;;;-1.90;99.90;-2.40;102491.00;;;;4896402;28;117926;-66
2024/01/28 03:32:34;;;;;;;4.93;3.67;;;-1.90;99.90;-2.30;102484.00;;;;4897793;28;87699;-65
2024/01/28 03:35:00;;;;;;;7.20;3.83;;;-2.00;99.90;-2.30;102488.00;;;;4897513;28;87848;-65
2024/01/28 03:37:26;;;;;;;21.60;4.53;;;-1.80;99.90;-2.30;102492.00;;;;4901851;28;88175;-65
2024/01/28 03:39:55;;;;;;;6.57;2.80;;;-1.80;99.90;-2.30;102491.00;;;;4900098;28;105842;-65
2024/01/28 03:42:23;;;;;;;10.40;3.87;;;-1.90;99.90;-2.20;102486.00;;;;4899643;28;87929;-65
2024/01/28 03:44:49;;;;;;;4.40;3.00;;;-1.80;99.90;-2.30;102487.00;;;;4896957;28;88805;-65
2024/01/28 03:47:15;;;;;;;9.27;4.00;;;-1.70;99.90;-2.20;102488.00;;;;4894456;28;88531;-65
2024/01/28 03:49:40;;;;;;;9.37;3.33;;;-1.80;99.90;-2.20;102495.00;;;;4896929;28;116123;-65
2024/01/28 03:52:06;;;;;;;9.27;4.00;;;-1.80;99.90;-2.20;102495.00;;;;4897605;28;110295;-65
2024/01/28 03:54:32;;;;;;;9.90;3.73;;;-1.70;99.90;-2.20;102497.00;;;;4898349;28;109048;-65
2024/01/28 03:56:57;;;;;;;5.33;3.70;;;-1.60;99.90;-2.20;102494.00;;;;4894212;28;117431;-65
2024/01/28 03:59:24;;;;;;;5.93;3.33;;;-1.00;99.90;-2.20;102482.00;;;;4895533;28;117424;-65
2024/01/28 04:01:49;;;;;;;8.37;3.03;;;-1.70;99.90;-2.20;102479.00;;;;4898053;28;87080;-65
2024/01/28 04:04:15;;;;;;;5.07;3.53;;;-1.70;99.90;-2.20;102486.00;;;;4897741;28;108653;-64
2024/01/28 04:06:43;;;;;;;7.90;3.43;;;-1.80;99.90;-2.30;102480.00;;;;4895540;28;97872;-67
2024/01/28 04:09:09;;;;;;;5.57;4.13;;;-1.80;99.90;-2.30;102488.00;;;;4897344;28;88851;-65
2024/01/28 04:11:36;;;;;;;5.13;3.10;;;-1.80;99.90;-2.30;102490.00;;;;4898776;28;88115;-65
2024/01/28 04:14:01;;;;;;;5.57;3.70;;;-1.80;99.90;-2.30;102496.00;;;;4902106;28;87680;-67
2024/01/28 04:16:31;;;;;;;5.53;2.93;;;-1.80;99.90;-2.30;102481.00;;;;4893977;28;116843;-65
2024/01/28 04:18:57;;;;;;;5.97;3.17;;;-1.80;99.90;-2.30;102477.00;;;;4896218;28;88478;-67
2024/01/28 04:21:26;;;;;;;6.23;3.57;;;-1.80;99.90;-2.40;102483.00;;;;4895954;28;108812;-65
2024/01/28 04:23:52;;;;;;;6.87;2.93;;;-1.80;99.90;-2.40;102473.00;;;;4898655;28;87598;-64
2024/01/28 04:26:18;;;;;;;4.60;3.03;;;-1.80;99.90;-2.40;102469.00;;;;4893402;28;87813;-65
2024/01/28 04:28:46;;;;;;;4.33;3.17;;;-1.90;99.90;-2.40;102476.00;;;;4896025;28;88207;-66
2024/01/28 04:31:13;;;;;;;7.33;3.50;;;-2.00;99.90;-2.40;102473.00;;;;4898666;28;88091;-67
2024/01/28 04:33:39;;;;;;;6.87;2.70;;;-1.90;99.90;-2.40;102478.00;;;;4897796;28;88832;-68
2024/01/28 04:36:05;;;;;;;4.37;2.60;;;-2.00;99.90;-2.40;102485.00;;;;4897280;28;117819;-64
2024/01/28 04:38:31;;;;;;;8.73;3.03;;;-1.90;99.90;-2.40;102485.00;;;;4898614;28;88578;-65
2024/01/28 04:40:57;;;;;;;5.53;3.80;;;-1.90;99.90;-2.40;102476.00;;;;4894736;28;88110;-65
2024/01/28 04:43:22;;;;;;;4.23;2.63;;;-2.00;99.90;-2.40;102464.00;;;;4896104;28;108920;-65
2024/01/28 04:45:48;;;;;;;7.03;3.33;;;-2.00;99.90;-2.40;102473.00;;;;4894053;28;118556;-65
2024/01/28 04:48:14;;;;;;;3.67;2.57;;;-1.90;99.90;-2.40;102467.00;;;;4896224;28;117324;-65
2024/01/28 04:50:40;;;;;;;4.20;2.87;;;-2.10;99.90;-2.40;102466.00;;;;4897920;28;110939;-65
2024/01/28 04:53:05;;;;;;;3.07;2.37;;;-1.90;99.90;-2.40;102464.00;;;;4900700;28;87785;-65
2024/01/28 04:55:31;;;;;;;4.90;3.23;;;-2.00;99.90;-2.40;102456.00;;;;4897466;28;118638;-65
2024/01/28 04:57:57;;;;;;;6.97;3.63;;;-2.00;99.90;-2.50;102462.00;;;;4897161;28;103841;-65
2024/01/28 05:00:23;;;;;;;4.00;3.03;;;-2.00;99.90;-2.40;102474.00;;;;4895506;28;109159;-66
2024/01/28 05:02:48;;;;;;;15.63;3.67;;;-2.00;99.90;-2.40;102473.00;;;;4899384;28;91523;-66
2024/01/28 05:05:14;;;;;;;4.53;2.73;;;-1.90;99.90;-2.40;102460.00;;;;4894431;28;116191;-66
2024/01/28 05:07:40;;;;;;;3.87;3.10;;;-1.90;99.90;-2.40;102470.00;;;;4895881;28;88534;-66
2024/01/28 05:10:08;;;;;;;5.43;3.97;;;-2.00;99.90;-2.50;102464.00;;;;4896526;28;109897;-66
2024/01/28 05:12:34;;;;;;;5.80;2.63;;;-2.00;99.90;-2.50;102458.00;;;;4895466;28;87927;-66
2024/01/28 05:15:01;;;;;;;8.77;4.17;;;-2.00;99.90;-2.50;102455.00;;;;4895916;28;114728;-66
2024/01/28 05:17:26;;;;;;;5.10;2.93;;;-2.00;99.90;-2.50;102457.00;;;;4898288;28;87858;-65
2024/01/28 05:19:52;;;;;;;3.43;2.33;;;-2.00;99.90;-2.60;102458.00;;;;4897335;28;88207;-65
2024/01/28 05:22:19;;;;;;;4.93;2.97;;;-2.00;99.90;-2.60;102460.00;;;;4897939;28;108215;-66
2024/01/28 05:24:49;;;;;;;11.53;3.83;;;-2.10;99.90;-2.60;102463.00;;;;4899654;28;89068;-66
2024/01/28 05:27:15;;;;;;;9.07;3.60;;;-2.00;99.90;-2.60;102467.00;;;;4898115;28;88429;-65
2024/01/28 05:29:41;;;;;;;8.83;3.80;;;-2.20;99.90;-2.70;102458.00;;;;4903426;28;104118;-65
2024/01/28 05:32:08;;;;;;;10.97;4.00;;;-2.20;99.90;-2.70;102463.00;;;;4900354;28;87998;-66
2024/01/28 05:34:34;;;;;;;6.50;4.03;;;-2.10;99.90;-2.70;102465.00;;;;4900156;28;118710;-65
2024/01/28 05:37:00;;;;;;;6.97;3.30;;;-2.20;99.90;-2.70;102462.00;;;;4899906;28;88945;-66
2024/01/28 05:39:27;;;;;;;5.93;3.40;;;-2.10;99.90;-2.70;102467.00;;;;4897689;28;87190;-65
2024/01/28 05:41:52;;;;;;;3.20;2.90;;;-2.20;99.90;-2.80;102462.00;;;;4895641;28;109324;-65
2024/01/28 05:44:18;;;;;;;4.97;3.57;;;-2.20;99.90;-2.80;102473.00;;;;4901771;28;117176;-66
2024/01/28 05:46:44;;;;;;;3.53;3.23;;;-2.30;99.90;-2.80;102475.00;;;;4879647;28;116106;-65
2024/01/28 05:49:11;;;;;;;4.73;3.17;;;-2.30;99.90;-2.90;102472.00;;;;4900219;28;110302;-66
2024/01/28 05:51:39;;;;;;;7.60;4.00;;;-2.30;99.90;-2.80;102465.00;;;;4897303;28;87613;-65
2024/01/28 05:54:08;;;;;;;5.43;2.57;;;-2.30;99.90;-2.90;102477.00;;;;4898133;28;88491;-66
2024/01/28 05:56:34;;;;;;;7.10;3.93;;;-2.40;99.90;-2.90;102465.00;;;;4898010;28;88169;-66
2024/01/28 05:59:00;;;;;;;4.43;3.33;;;-2.40;99.90;-2.90;102473.00;;;;4897161;28;105364;-66
2024/01/28 06:01:25;;;;;;;4.20;3.13;;;-2.40;99.90;-2.90;102483.00;;;;4898134;28;87789;-66
2024/01/28 06:03:51;;;;;;;6.70;3.70;;;-2.40;99.90;-2.90;102470.00;;;;4900074;28;118254;-65
2024/01/28 06:06:16;;;;;;;9.27;3.57;;;-2.40;99.90;-2.90;102479.00;;;;4894135;28;116377;-65
2024/01/28 06:08:42;;;;;;;7.03;3.87;;;-2.40;99.90;-2.90;102486.00;;;;4897876;28;111546;-65
2024/01/28 06:11:09;;;;;;;6.33;3.70;;;-2.40;99.90;-3.00;102477.00;;;;4899766;28;108846;-65
2024/01/28 06:13:36;;;;;;;11.13;4.43;;;-2.50;99.90;-3.00;102483.00;;;;4900323;28;117942;-66
2024/01/28 06:16:02;;;;;;;7.60;3.30;;;-2.50;99.90;-3.00;102483.00;;;;4899789;28;88981;-66
2024/01/28 06:18:27;;;;;;;10.53;4.33;;;-2.40;99.90;-3.10;102492.00;;;;4899612;28;87736;-66
2024/01/28 06:20:53;;;;;;;9.73;3.47;;;-2.50;99.90;-3.10;102502.00;;;;4898774;28;108204;-65
2024/01/28 06:23:19;;;;;;;7.13;3.27;;;-2.50;99.90;-3.10;102502.00;;;;4897285;28;88669;-65
2024/01/28 06:25:45;;;;;;;6.03;3.07;;;-2.60;99.90;-3.10;102504.00;;;;4898773;28;116751;-65
2024/01/28 06:28:11;;;;;;;4.33;3.93;;;-2.50;99.90;-3.10;102497.00;;;;4899805;28;87416;-66
2024/01/28 06:30:36;;;;;;;12.77;3.83;;;-2.60;99.90;-3.10;102510.00;;;;4891556;28;87936;-66
2024/01/28 06:33:03;;;;;;;8.63;3.87;;;-2.50;99.90;-3.10;102510.00;;;;4893179;28;117445;-66
2024/01/28 06:35:30;;;;;;;8.67;4.40;;;-2.50;99.90;-3.10;102500.00;;;;4899900;28;88668;-66
2024/01/28 06:37:56;;;;;;;7.80;4.40;;;-2.60;99.90;-3.10;102491.00;;;;4897785;28;87981;-65
2024/01/28 06:40:22;;;;;;;6.63;3.90;;;-2.60;99.90;-3.20;102508.00;;;;4897545;28;87936;-66
2024/01/28 06:42:47;;;;;;;5.67;3.40;;;-2.60;99.90;-3.20;102507.00;;;;4896383;28;88132;-65
2024/01/28 06:45:13;;;;;;;8.30;4.13;;;-2.70;99.90;-3.20;102506.00;;;;4894583;28;117556;-66
2024/01/28 06:47:38;;;;;;;5.63;4.03;;;-2.70;99.90;-3.20;102504.00;;;;4897441;28;89129;-65
2024/01/28 06:50:05;;;;;;;7.87;3.63;;;-2.70;99.90;-3.20;102508.00;;;;4902182;28;109307;-66
2024/01/28 06:52:31;;;;;;;12.60;3.57;;;-2.60;99.90;-3.20;102504.00;;;;4893049;28;87479;-65
2024/01/28 06:54:58;;;;;;;7.97;4.07;;;-2.60;99.90;-3.20;102507.00;;;;4891613;28;88105;-65
2024/01/28 06:57:23;;;;;;;4.43;2.90;;;-2.70;99.90;-3.20;102499.00;;;;4899490;28;96182;-65
2024/01/28 06:59:49;;;;;;;7.40;2.97;;;-2.70;99.90;-3.20;102500.00;;;;4893659;28;108330;-66
2024/01/28 07:02:15;;;;;;;4.80;2.97;;;-2.70;99.90;-3.20;102501.00;;;;4906973;28;88655;-65
2024/01/28 07:04:41;;;;;;;8.77;4.50;;;-2.70;99.90;-3.10;102485.00;;;;4897698;28;88317;-65
2024/01/28 07:07:07;;;;;;;6.77;3.40;;;-1.50;99.90;-3.10;102492.00;;;;4892398;28;87966;-65
2024/01/28 07:09:32;;;;;;;10.40;4.63;;;-2.60;99.90;-3.10;102479.00;;;;4892468;28;110603;-65
2024/01/28 07:11:58;;;;;;;73.30;38.43;;;-2.60;99.90;-3.00;102480.00;;;;4897755;28;116880;-65
2024/01/28 07:14:24;;;;;;;17.37;9.00;;;-2.50;99.90;-3.00;102479.00;;;;4892292;28;87985;-65
2024/01/28 07:16:50;;;;;;;10.57;5.53;;;-2.50;99.90;-2.90;102479.00;;;;4895078;28;87381;-66
2024/01/28 07:19:16;;;;;;;10.03;5.20;;;-2.40;99.90;-2.80;102481.00;;;;4897449;28;88119;-65
2024/01/28 07:21:42;;;;;;;20.97;7.63;;;-2.40;99.90;-2.60;102480.00;;;;4892947;28;92794;-66
2024/01/28 07:24:08;;;;;;;8.43;5.30;;;-2.10;99.90;-2.40;102482.00;;;;4890693;28;91400;-65
2024/01/28 07:26:34;;;;;;;11.87;4.63;;;-2.00;99.90;-2.30;102503.00;;;;4893198;28;89431;-65
2024/01/28 07:29:00;;;;;;;5.23;4.10;;;-1.90;99.90;-2.10;102494.00;;;;4894476;28;91275;-65
2024/01/28 07:31:26;;;;;;;14.40;6.23;;;-1.70;99.90;-1.90;102492.00;;;;4892968;28;107622;-66
2024/01/28 07:33:52;;;;;;;8.57;4.60;;;-0.90;99.90;-1.60;102494.00;;;;4895659;28;88210;-66
2024/01/28 07:36:18;;;;;;;11.97;5.90;;;-1.30;99.90;-1.40;102495.00;;;;4897064;28;96487;-66
2024/01/28 07:38:43;;;;;;;13.47;6.30;;;-1.10;99.90;-1.30;102499.00;;;;4895312;28;88566;-66
2024/01/28 07:41:14;;;;;;;11.33;4.90;;;-0.10;99.90;-1.00;102504.00;;;;4894865;28;87403;-66
2024/01/28 07:43:43;;;;;;;8.50;6.00;;;-0.60;99.90;-0.80;102500.00;;;;4893372;28;87705;-66
2024/01/28 07:46:11;;;;;;;8.40;5.60;;;-0.40;99.90;-0.60;102510.00;;;;4889595;28;88157;-66
2024/01/28 07:48:37;;;;;;;9.37;8.27;;;-0.20;99.90;-0.40;102504.00;;;;4895149;28;108038;-66
2024/01/28 07:51:03;;;;;;;7.87;6.53;;;0.00;99.90;-0.30;102517.00;;;;4895593;28;92017;-66
2024/01/28 07:53:29;;;;;;;10.60;5.03;;;0.20;99.90;-0.10;102508.00;;;;4890096;28;102322;-66
2024/01/28 07:55:55;;;;;;;666.67;424.53;;;0.30;99.90;0.00;102503.00;;;;4893334;28;109548;-66
2024/01/28 07:58:20;;;;;;;65.67;36.67;;;1.50;99.90;0.20;102490.00;;;;4894018;28;88105;-66
2024/01/28 08:00:46;;;;;;;18.67;12.03;;;1.20;99.90;0.50;102490.00;;;;4895092;28;118830;-67
2024/01/28 08:03:12;;;;;;;15.30;9.37;;;0.80;99.90;0.70;102484.00;;;;4893212;28;117019;-66
2024/01/28 08:05:37;;;;;;;14.33;7.93;;;1.80;99.90;1.00;102489.00;;;;4893208;28;87045;-66
2024/01/28 08:08:03;;;;;;;12.60;7.80;;;1.30;99.90;1.30;102493.00;;;;4889791;28;109510;-66
2024/01/28 08:10:29;;;;;;;8.73;5.70;;;1.50;99.90;1.50;102502.00;;;;4892745;28;105074;-66
2024/01/28 08:13:01;;;;;;;10.67;7.17;;;1.80;99.90;1.80;102500.00;;;;4893525;28;117274;-66
2024/01/28 08:15:26;;;;;;;15.83;5.43;;;2.10;99.90;2.00;102511.00;;;;4891956;28;109757;-67
2024/01/28 08:17:52;;;;;;;5.47;4.43;;;2.40;99.90;2.20;102503.00;;;;4893541;28;108368;-67
2024/01/28 08:20:18;;;;;;;4.57;4.17;;;2.50;99.90;2.40;102504.00;;;;4892744;28;117387;-66
2024/01/28 08:22:43;;;;;;;8.47;5.97;;;2.70;99.90;2.70;102501.00;;;;4892046;28;119025;-66
2024/01/28 08:25:11;;;;;;;8.47;4.17;;;3.00;99.90;2.90;102503.00;;;;4893596;28;87765;-66
2024/01/28 08:27:37;;;;;;;10.83;4.60;;;3.20;99.90;3.20;102491.00;;;;4890545;28;87989;-65
2024/01/28 08:30:08;;;;;;;10.43;6.57;;;3.40;99.90;3.40;102505.00;;;;4889127;28;108482;-64
2024/01/28 08:32:34;;;;;;;7.50;4.57;;;3.60;99.90;3.60;102506.00;;;;4891842;28;89255;-65
2024/01/28 08:35:00;;;;;;;6.13;4.33;;;3.80;99.90;3.70;102501.00;;;;4891892;28;103383;-66
2024/01/28 08:37:26;;;;;;;5.67;4.83;;;3.90;99.90;3.90;102494.00;;;;4890598;28;88618;-65
2024/01/28 08:39:52;;;;;;;4.80;4.30;;;4.20;99.90;4.20;102488.00;;;;4891878;28;88564;-65
2024/01/28 08:42:19;;;;;;;4.57;3.60;;;4.30;99.90;4.40;102500.00;;;;4888550;28;117054;-65
2024/01/28 08:44:46;;;;;;;8.77;4.87;;;4.50;99.90;4.60;102488.00;;;;4893049;28;87768;-66
2024/01/28 08:47:12;;;;;;;5.90;4.10;;;4.80;99.90;5.00;102493.00;;;;4889515;28;87953;-65
2024/01/28 08:49:38;;;;;;;4.70;3.23;;;4.90;99.90;5.30;102500.00;;;;4892966;28;117425;-66
2024/01/28 08:52:04;;;;;;;7.50;4.57;;;6.40;99.90;5.60;102496.00;;;;4894027;28;88074;-66
2024/01/28 08:54:30;;;;;;;6.13;4.30;;;5.60;99.90;5.90;102508.00;;;;4895609;28;87354;-66
2024/01/28 08:56:56;;;;;;;7.97;5.20;;;7.00;99.90;6.20;102504.00;;;;4894146;28;87989;-66
2024/01/28 08:59:22;;;;;;;7.60;3.97;;;6.60;99.90;6.50;102506.00;;;;4895323;28;105866;-67
2024/01/28 09:01:49;;;;;;;6.07;3.47;;;6.60;99.90;6.80;102512.00;;;;4894243;28;117310;-67
2024/01/28 09:04:15;;;;;;;4.40;3.80;;;6.90;99.90;7.10;102511.00;;;;4896902;28;89134;-67
2024/01/28 09:06:41;;;;;;;4.03;3.50;;;7.40;99.90;7.50;102517.00;;;;4895962;28;87833;-67
2024/01/28 09:09:08;;;;;;;6.13;5.40;;;7.50;99.90;7.80;102511.00;;;;4895667;28;117754;-68
2024/01/28 09:11:37;;;;;;;11.10;7.13;;;7.70;99.90;8.10;102515.00;;;;4897321;28;88639;-68
2024/01/28 09:14:03;;;;;;;12.30;6.60;;;8.10;99.90;8.40;102519.00;;;;4896097;28;110360;-68
2024/01/28 09:16:29;;;;;;;8.87;4.97;;;8.40;99.90;8.70;102513.00;;;;4907741;28;97570;-68
2024/01/28 09:18:55;;;;;;;9.80;4.00;;;8.70;99.90;9.00;102522.00;;;;4897900;28;116452;-68
2024/01/28 09:21:21;;;;;;;3.97;3.23;;;9.00;99.90;9.30;102525.00;;;;4894591;28;117181;-68
2024/01/28 09:23:47;;;;;;;6.17;4.53;;;9.40;99.90;9.60;102524.00;;;;4895651;28;109616;-68
2024/01/28 09:26:13;;;;;;;9.33;3.37;;;9.60;99.90;9.90;102528.00;;;;4893608;28;88893;-68
2024/01/28 09:28:39;;;;;;;7.07;4.63;;;9.90;99.90;10.10;102520.00;;;;4900605;28;89152;-69
2024/01/28 09:31:08;;;;;;;9.20;3.77;;;10.10;99.90;10.30;102521.00;;;;4896708;28;110226;-69
2024/01/28 09:33:34;;;;;;;6.33;3.07;;;10.30;99.90;10.50;102521.00;;;;4894284;28;88347;-69
2024/01/28 09:35:59;;;;;;;6.60;3.60;;;10.50;99.90;10.70;102523.00;;;;4896089;28;100110;-69
2024/01/28 09:38:25;;;;;;;5.80;3.40;;;11.20;99.90;10.80;102531.00;;;;4893203;28;118028;-69
2024/01/28 09:40:52;;;;;;;7.87;3.17;;;10.70;99.90;10.90;102524.00;;;;4899637;28;115928;-70
2024/01/28 09:43:28;;;;;;;5.50;3.23;;;11.50;99.90;11.10;102538.00;;;;4898811;28;87435;-70
2024/01/28 09:45:55;;;;;;;5.47;3.57;;;11.00;99.90;11.40;102544.00;;;;4894647;28;87713;-70
2024/01/28 09:48:21;;;;;;;9.17;3.70;;;11.30;99.90;11.60;102543.00;;;;4892397;28;88755;-70
2024/01/28 09:50:47;;;;;;;5.97;3.37;;;11.40;99.90;11.90;102535.00;;;;4891742;28;118429;-70
2024/01/28 09:53:13;;;;;;;7.93;3.83;;;11.70;99.90;12.20;102538.00;;;;4890573;28;88171;-70
2024/01/28 09:55:40;;;;;;;6.57;4.00;;;12.00;99.90;12.50;102535.00;;;;4894045;28;88134;-69
2024/01/28 09:58:06;;;;;;;4.30;2.63;;;12.30;99.90;12.80;102526.00;;;;4898128;28;91971;-70
2024/01/28 10:00:31;;;;;;;6.63;4.37;;;12.60;99.90;13.00;102521.00;;;;4891366;28;117721;-70
2024/01/28 10:02:57;;;;;;;9.80;4.87;;;12.80;99.90;13.20;102515.00;;;;4894499;28;110484;-69
2024/01/28 10:05:23;;;;;;;8.40;3.55;;;13.00;98.80;13.20;102503.00;;;;4892354;28;109455;-70
2024/01/28 10:07:50;;;;;;;5.35;2.78;;;13.20;97.20;13.20;102511.00;;;;4894640;28;117689;-69
2024/01/28 10:10:17;;;;;;;4.17;2.43;;;13.10;96.10;13.10;102496.00;;;;4910565;28;88046;-70
2024/01/28 10:12:46;;;;;;;3.13;2.05;;;13.10;93.80;12.90;102501.00;;;;4894789;28;87771;-69
2024/01/28 10:15:17;;;;;;;5.25;2.30;;;13.00;92.70;12.80;102498.00;;;;4897595;28;89090;-69
2024/01/28 10:17:48;;;;;;;3.80;1.83;;;12.80;93.00;12.70;102507.00;;;;4898561;28;89465;-69
2024/01/28 10:20:15;;;;;;;3.47;1.90;;;12.70;91.20;12.60;102500.00;;;;4911254;28;90127;-70
2024/01/28 10:22:41;;;;;;;4.93;2.22;;;12.60;91.40;12.60;102496.00;;;;4893344;28;91764;-71
2024/01/28 10:25:11;;;;;;;5.47;3.17;;;12.60;90.90;12.60;102505.00;;;;4894786;28;107863;-71
2024/01/28 10:27:37;;;;;;;3.90;2.50;;;12.60;91.60;12.80;102504.00;;;;4895004;28;88199;-70
2024/01/28 10:30:05;;;;;;;5.13;1.93;;;12.70;91.10;12.90;102499.00;;;;4890354;28;117242;-70
2024/01/28 10:32:30;;;;;;;2.20;2.00;;;12.70;90.70;12.90;102502.00;;;;4906322;28;87334;-72
2024/01/28 10:34:56;;;;;;;2.77;1.73;;;12.80;89.60;12.90;102496.00;;;;4893434;28;108571;-69
2024/01/28 10:37:23;;;;;;;4.77;2.00;;;12.80;89.00;13.00;102503.00;;;;4896598;28;117602;-69
2024/01/28 10:39:56;;;;;;;2.88;1.45;;;12.90;90.20;13.20;102507.00;;;;4893139;28;89096;-69